sensor_id;sensor_type;location;lat;lon;timestamp;P1;durP1;ratioP1;P2;durP2;ratioP2
24206;SDS011;12351;52.284;9.160;2023-04-03T00:00:24;5.13;;;1.40;;
24206;SDS011;12351;52.284;9.160;2023-04-03T00:03:10;5.03;;;1.27;;
24206;SDS011;12351;52.284;9.160;2023-04-03T00:05:57;5.10;;;1.20;;
24206;SDS011;12351;52.284;9.160;2023-04-03T00:08:44;4.57;;;1.13;;
24206;SDS011;12351;52.284;9.160;2023-04-03T00:11:30;2.63;;;1.40;;
24206;SDS011;12351;52.284;9.160;2023-04-03T00:14:17;6.47;;;1.43;;
24206;SDS011;12351;52.284;9.160;2023-04-03T00:17:04;4.20;;;1.00;;
24206;SDS011;12351;52.284;9.160;2023-04-03T00:19:50;6.27;;;1.33;;
24206;SDS011;12351;52.284;9.160;2023-04-03T00:22:37;6.07;;;1.00;;
24206;SDS011;12351;52.284;9.160;2023-04-03T00:25:23;4.10;;;1.10;;
24206;SDS011;12351;52.284;9.160;2023-04-03T00:28:09;2.67;;;1.20;;
24206;SDS011;12351;52.284;9.160;2023-04-03T00:30:56;4.13;;;1.30;;
24206;SDS011;12351;52.284;9.160;2023-04-03T00:33:43;3.90;;;1.23;;
24206;SDS011;12351;52.284;9.160;2023-04-03T00:36:29;3.80;;;1.30;;
24206;SDS011;12351;52.284;9.160;2023-04-03T00:39:16;2.60;;;0.93;;
24206;SDS011;12351;52.284;9.160;2023-04-03T00:42:03;3.63;;;1.07;;
24206;SDS011;12351;52.284;9.160;2023-04-03T00:47:31;3.77;;;1.00;;
24206;SDS011;12351;52.284;9.160;2023-04-03T00:50:18;3.40;;;1.00;;
24206;SDS011;12351;52.284;9.160;2023-04-03T00:53:05;4.33;;;1.20;;
24206;SDS011;12351;52.284;9.160;2023-04-03T00:55:54;6.07;;;1.53;;
24206;SDS011;12351;52.284;9.160;2023-04-03T00:58:44;8.57;;;1.60;;
24206;SDS011;12351;52.284;9.160;2023-04-03T01:01:31;3.50;;;1.20;;
24206;SDS011;12351;52.284;9.160;2023-04-03T01:07:09;6.87;;;1.33;;
24206;SDS011;12351;52.284;9.160;2023-04-03T01:09:58;8.60;;;1.23;;
24206;SDS011;12351;52.284;9.160;2023-04-03T01:12:47;4.50;;;1.37;;
24206;SDS011;12351;52.284;9.160;2023-04-03T01:15:35;5.77;;;1.13;;
24206;SDS011;12351;52.284;9.160;2023-04-03T01:18:22;5.67;;;1.30;;
24206;SDS011;12351;52.284;9.160;2023-04-03T01:26:48;3.70;;;1.10;;
24206;SDS011;12351;52.284;9.160;2023-04-03T01:29:34;4.10;;;1.10;;
24206;SDS011;12351;52.284;9.160;2023-04-03T01:32:22;6.27;;;1.40;;
24206;SDS011;12351;52.284;9.160;2023-04-03T01:35:09;5.90;;;1.50;;
24206;SDS011;12351;52.284;9.160;2023-04-03T01:37:56;6.17;;;1.50;;
24206;SDS011;12351;52.284;9.160;2023-04-03T01:40:42;3.00;;;0.93;;
24206;SDS011;12351;52.284;9.160;2023-04-03T01:43:29;5.23;;;1.30;;
24206;SDS011;12351;52.284;9.160;2023-04-03T01:46:16;4.93;;;1.10;;
24206;SDS011;12351;52.284;9.160;2023-04-03T01:49:04;6.37;;;1.33;;
24206;SDS011;12351;52.284;9.160;2023-04-03T01:51:51;4.53;;;1.40;;
24206;SDS011;12351;52.284;9.160;2023-04-03T01:54:37;5.73;;;1.37;;
24206;SDS011;12351;52.284;9.160;2023-04-03T01:57:24;4.40;;;1.10;;
24206;SDS011;12351;52.284;9.160;2023-04-03T02:00:11;3.50;;;1.30;;
24206;SDS011;12351;52.284;9.160;2023-04-03T02:02:58;5.17;;;1.10;;
24206;SDS011;12351;52.284;9.160;2023-04-03T02:05:45;4.93;;;1.20;;
24206;SDS011;12351;52.284;9.160;2023-04-03T02:08:31;5.00;;;1.30;;
24206;SDS011;12351;52.284;9.160;2023-04-03T02:11:18;4.57;;;1.30;;
24206;SDS011;12351;52.284;9.160;2023-04-03T02:14:05;4.13;;;1.10;;
24206;SDS011;12351;52.284;9.160;2023-04-03T02:16:52;4.53;;;1.40;;
24206;SDS011;12351;52.284;9.160;2023-04-03T02:19:38;4.00;;;1.50;;
24206;SDS011;12351;52.284;9.160;2023-04-03T02:22:25;4.37;;;1.30;;
24206;SDS011;12351;52.284;9.160;2023-04-03T02:25:12;3.47;;;1.33;;
24206;SDS011;12351;52.284;9.160;2023-04-03T02:27:58;7.63;;;1.27;;
24206;SDS011;12351;52.284;9.160;2023-04-03T02:30:46;6.10;;;1.60;;
24206;SDS011;12351;52.284;9.160;2023-04-03T02:33:33;5.87;;;1.50;;
24206;SDS011;12351;52.284;9.160;2023-04-03T02:36:21;4.90;;;1.27;;
24206;SDS011;12351;52.284;9.160;2023-04-03T02:39:08;9.17;;;1.40;;
24206;SDS011;12351;52.284;9.160;2023-04-03T02:41:54;5.17;;;1.30;;
24206;SDS011;12351;52.284;9.160;2023-04-03T02:44:41;5.13;;;1.30;;
24206;SDS011;12351;52.284;9.160;2023-04-03T02:47:28;6.70;;;2.10;;
24206;SDS011;12351;52.284;9.160;2023-04-03T02:50:14;7.97;;;1.60;;
24206;SDS011;12351;52.284;9.160;2023-04-03T02:53:00;4.93;;;1.67;;
24206;SDS011;12351;52.284;9.160;2023-04-03T02:55:47;5.67;;;1.97;;
24206;SDS011;12351;52.284;9.160;2023-04-03T02:58:34;7.57;;;2.00;;
24206;SDS011;12351;52.284;9.160;2023-04-03T03:01:20;7.80;;;2.10;;
24206;SDS011;12351;52.284;9.160;2023-04-03T03:04:07;5.77;;;2.00;;
24206;SDS011;12351;52.284;9.160;2023-04-03T03:06:53;9.07;;;2.30;;
24206;SDS011;12351;52.284;9.160;2023-04-03T03:09:40;7.80;;;2.10;;
24206;SDS011;12351;52.284;9.160;2023-04-03T03:12:26;10.30;;;1.80;;
24206;SDS011;12351;52.284;9.160;2023-04-03T03:15:13;10.50;;;1.80;;
24206;SDS011;12351;52.284;9.160;2023-04-03T03:18:00;5.03;;;1.57;;
24206;SDS011;12351;52.284;9.160;2023-04-03T03:20:46;5.40;;;1.50;;
24206;SDS011;12351;52.284;9.160;2023-04-03T03:23:36;6.30;;;1.67;;
24206;SDS011;12351;52.284;9.160;2023-04-03T03:26:23;4.47;;;1.60;;
24206;SDS011;12351;52.284;9.160;2023-04-03T03:29:09;6.30;;;1.60;;
24206;SDS011;12351;52.284;9.160;2023-04-03T03:31:56;5.43;;;1.43;;
24206;SDS011;12351;52.284;9.160;2023-04-03T03:34:42;5.40;;;1.93;;
24206;SDS011;12351;52.284;9.160;2023-04-03T03:37:29;5.37;;;2.00;;
24206;SDS011;12351;52.284;9.160;2023-04-03T03:40:15;3.80;;;1.40;;
24206;SDS011;12351;52.284;9.160;2023-04-03T03:43:02;6.57;;;1.57;;
24206;SDS011;12351;52.284;9.160;2023-04-03T03:45:49;3.90;;;1.47;;
24206;SDS011;12351;52.284;9.160;2023-04-03T03:48:37;7.90;;;1.20;;
24206;SDS011;12351;52.284;9.160;2023-04-03T03:51:24;9.97;;;1.80;;
24206;SDS011;12351;52.284;9.160;2023-04-03T03:54:10;5.17;;;1.40;;
24206;SDS011;12351;52.284;9.160;2023-04-03T03:56:56;4.43;;;1.33;;
24206;SDS011;12351;52.284;9.160;2023-04-03T03:59:43;5.13;;;1.50;;
24206;SDS011;12351;52.284;9.160;2023-04-03T04:02:30;7.27;;;1.27;;
24206;SDS011;12351;52.284;9.160;2023-04-03T04:05:16;5.40;;;1.27;;
24206;SDS011;12351;52.284;9.160;2023-04-03T04:08:03;2.30;;;0.90;;
24206;SDS011;12351;52.284;9.160;2023-04-03T04:10:50;4.33;;;1.40;;
24206;SDS011;12351;52.284;9.160;2023-04-03T04:13:36;7.13;;;1.67;;
24206;SDS011;12351;52.284;9.160;2023-04-03T04:16:23;5.33;;;1.30;;
24206;SDS011;12351;52.284;9.160;2023-04-03T04:19:09;6.77;;;1.13;;
24206;SDS011;12351;52.284;9.160;2023-04-03T04:21:56;4.87;;;1.40;;
24206;SDS011;12351;52.284;9.160;2023-04-03T04:24:42;5.33;;;1.60;;
24206;SDS011;12351;52.284;9.160;2023-04-03T04:27:28;4.47;;;1.43;;
24206;SDS011;12351;52.284;9.160;2023-04-03T04:30:15;7.03;;;1.67;;
24206;SDS011;12351;52.284;9.160;2023-04-03T04:33:02;5.57;;;1.43;;
24206;SDS011;12351;52.284;9.160;2023-04-03T04:35:49;5.87;;;1.50;;
24206;SDS011;12351;52.284;9.160;2023-04-03T04:38:36;7.90;;;1.97;;
24206;SDS011;12351;52.284;9.160;2023-04-03T04:41:23;5.50;;;1.20;;
24206;SDS011;12351;52.284;9.160;2023-04-03T04:44:10;6.20;;;1.80;;
24206;SDS011;12351;52.284;9.160;2023-04-03T04:46:57;9.30;;;2.03;;
24206;SDS011;12351;52.284;9.160;2023-04-03T04:49:43;6.67;;;1.50;;
24206;SDS011;12351;52.284;9.160;2023-04-03T04:52:32;5.73;;;1.43;;
24206;SDS011;12351;52.284;9.160;2023-04-03T04:55:19;6.97;;;1.70;;
24206;SDS011;12351;52.284;9.160;2023-04-03T04:58:05;4.50;;;1.40;;
24206;SDS011;12351;52.284;9.160;2023-04-03T05:03:40;6.20;;;1.47;;
24206;SDS011;12351;52.284;9.160;2023-04-03T05:06:27;6.57;;;1.50;;
24206;SDS011;12351;52.284;9.160;2023-04-03T05:09:15;7.17;;;1.60;;
24206;SDS011;12351;52.284;9.160;2023-04-03T05:12:02;4.47;;;1.90;;
24206;SDS011;12351;52.284;9.160;2023-04-03T05:14:49;9.07;;;2.20;;
24206;SDS011;12351;52.284;9.160;2023-04-03T05:17:35;8.40;;;2.10;;
24206;SDS011;12351;52.284;9.160;2023-04-03T05:20:22;6.87;;;2.03;;
24206;SDS011;12351;52.284;9.160;2023-04-03T05:23:09;4.10;;;1.90;;
24206;SDS011;12351;52.284;9.160;2023-04-03T05:25:56;6.67;;;2.30;;
24206;SDS011;12351;52.284;9.160;2023-04-03T05:28:43;9.10;;;2.13;;
24206;SDS011;12351;52.284;9.160;2023-04-03T05:31:30;6.37;;;2.00;;
24206;SDS011;12351;52.284;9.160;2023-04-03T05:34:16;7.27;;;1.90;;
24206;SDS011;12351;52.284;9.160;2023-04-03T05:37:03;5.80;;;1.50;;
24206;SDS011;12351;52.284;9.160;2023-04-03T05:39:49;4.30;;;1.60;;
24206;SDS011;12351;52.284;9.160;2023-04-03T05:42:36;5.17;;;1.70;;
24206;SDS011;12351;52.284;9.160;2023-04-03T05:45:22;5.57;;;1.77;;
24206;SDS011;12351;52.284;9.160;2023-04-03T05:48:08;4.30;;;1.93;;
24206;SDS011;12351;52.284;9.160;2023-04-03T05:50:55;5.27;;;1.77;;
24206;SDS011;12351;52.284;9.160;2023-04-03T05:53:41;8.20;;;2.60;;
24206;SDS011;12351;52.284;9.160;2023-04-03T05:56:30;8.13;;;2.10;;
24206;SDS011;12351;52.284;9.160;2023-04-03T05:59:16;6.53;;;2.50;;
24206;SDS011;12351;52.284;9.160;2023-04-03T06:02:03;7.03;;;2.10;;
24206;SDS011;12351;52.284;9.160;2023-04-03T06:04:49;5.20;;;2.17;;
24206;SDS011;12351;52.284;9.160;2023-04-03T06:07:36;5.00;;;2.27;;
24206;SDS011;12351;52.284;9.160;2023-04-03T06:10:23;8.23;;;2.13;;
24206;SDS011;12351;52.284;9.160;2023-04-03T06:13:09;6.47;;;1.70;;
24206;SDS011;12351;52.284;9.160;2023-04-03T06:15:56;8.03;;;1.90;;
24206;SDS011;12351;52.284;9.160;2023-04-03T06:18:43;8.50;;;3.10;;
24206;SDS011;12351;52.284;9.160;2023-04-03T06:21:30;6.63;;;2.37;;
24206;SDS011;12351;52.284;9.160;2023-04-03T06:24:16;8.30;;;1.93;;
24206;SDS011;12351;52.284;9.160;2023-04-03T06:27:05;7.13;;;2.00;;
24206;SDS011;12351;52.284;9.160;2023-04-03T06:29:52;10.50;;;1.87;;
24206;SDS011;12351;52.284;9.160;2023-04-03T06:32:38;5.07;;;1.40;;
24206;SDS011;12351;52.284;9.160;2023-04-03T06:35:24;5.23;;;1.70;;
24206;SDS011;12351;52.284;9.160;2023-04-03T06:38:12;6.23;;;1.60;;
24206;SDS011;12351;52.284;9.160;2023-04-03T06:40:59;5.17;;;1.60;;
24206;SDS011;12351;52.284;9.160;2023-04-03T06:43:46;9.00;;;2.10;;
24206;SDS011;12351;52.284;9.160;2023-04-03T06:46:33;4.67;;;1.77;;
24206;SDS011;12351;52.284;9.160;2023-04-03T06:49:19;6.73;;;1.93;;
24206;SDS011;12351;52.284;9.160;2023-04-03T06:52:06;7.57;;;2.10;;
24206;SDS011;12351;52.284;9.160;2023-04-03T06:54:53;6.83;;;1.77;;
24206;SDS011;12351;52.284;9.160;2023-04-03T06:57:40;7.40;;;2.00;;
24206;SDS011;12351;52.284;9.160;2023-04-03T07:00:27;6.97;;;1.60;;
24206;SDS011;12351;52.284;9.160;2023-04-03T07:03:14;9.87;;;1.90;;
24206;SDS011;12351;52.284;9.160;2023-04-03T07:06:00;9.20;;;1.73;;
24206;SDS011;12351;52.284;9.160;2023-04-03T07:08:47;4.70;;;1.40;;
24206;SDS011;12351;52.284;9.160;2023-04-03T07:11:34;8.53;;;2.37;;
24206;SDS011;12351;52.284;9.160;2023-04-03T07:14:21;6.10;;;1.83;;
24206;SDS011;12351;52.284;9.160;2023-04-03T07:17:07;10.20;;;1.97;;
24206;SDS011;12351;52.284;9.160;2023-04-03T07:19:54;6.10;;;1.90;;
24206;SDS011;12351;52.284;9.160;2023-04-03T07:22:40;6.67;;;1.40;;
24206;SDS011;12351;52.284;9.160;2023-04-03T07:25:26;6.87;;;1.60;;
24206;SDS011;12351;52.284;9.160;2023-04-03T07:28:14;4.63;;;1.13;;
24206;SDS011;12351;52.284;9.160;2023-04-03T07:31:04;5.30;;;1.60;;
24206;SDS011;12351;52.284;9.160;2023-04-03T07:33:52;5.90;;;1.60;;
24206;SDS011;12351;52.284;9.160;2023-04-03T07:36:39;9.23;;;1.90;;
24206;SDS011;12351;52.284;9.160;2023-04-03T07:39:25;5.80;;;1.60;;
24206;SDS011;12351;52.284;9.160;2023-04-03T07:42:12;4.83;;;1.40;;
24206;SDS011;12351;52.284;9.160;2023-04-03T07:44:59;5.50;;;1.40;;
24206;SDS011;12351;52.284;9.160;2023-04-03T07:47:46;5.17;;;1.40;;
24206;SDS011;12351;52.284;9.160;2023-04-03T07:50:32;5.10;;;1.63;;
24206;SDS011;12351;52.284;9.160;2023-04-03T07:53:20;6.57;;;1.50;;
24206;SDS011;12351;52.284;9.160;2023-04-03T07:59:00;5.53;;;1.73;;
24206;SDS011;12351;52.284;9.160;2023-04-03T08:01:47;6.73;;;1.57;;
24206;SDS011;12351;52.284;9.160;2023-04-03T08:04:34;6.70;;;1.23;;
24206;SDS011;12351;52.284;9.160;2023-04-03T08:07:20;5.10;;;1.40;;
24206;SDS011;12351;52.284;9.160;2023-04-03T08:10:07;7.67;;;1.60;;
24206;SDS011;12351;52.284;9.160;2023-04-03T08:12:54;5.50;;;1.37;;
24206;SDS011;12351;52.284;9.160;2023-04-03T08:15:40;5.53;;;1.50;;
24206;SDS011;12351;52.284;9.160;2023-04-03T08:18:27;5.53;;;1.63;;
24206;SDS011;12351;52.284;9.160;2023-04-03T08:21:14;4.03;;;1.30;;
24206;SDS011;12351;52.284;9.160;2023-04-03T08:24:01;3.97;;;1.23;;
24206;SDS011;12351;52.284;9.160;2023-04-03T08:26:48;9.37;;;1.90;;
24206;SDS011;12351;52.284;9.160;2023-04-03T08:29:35;10.50;;;1.60;;
24206;SDS011;12351;52.284;9.160;2023-04-03T08:32:22;6.40;;;1.50;;
24206;SDS011;12351;52.284;9.160;2023-04-03T08:35:08;7.37;;;1.50;;
24206;SDS011;12351;52.284;9.160;2023-04-03T08:37:55;9.20;;;1.50;;
24206;SDS011;12351;52.284;9.160;2023-04-03T08:40:45;7.33;;;1.20;;
24206;SDS011;12351;52.284;9.160;2023-04-03T08:43:35;5.93;;;1.70;;
24206;SDS011;12351;52.284;9.160;2023-04-03T08:46:19;5.40;;;1.40;;
24206;SDS011;12351;52.284;9.160;2023-04-03T08:49:11;5.03;;;1.07;;
24206;SDS011;12351;52.284;9.160;2023-04-03T08:51:57;4.33;;;1.43;;
24206;SDS011;12351;52.284;9.160;2023-04-03T08:57:27;7.07;;;1.30;;
24206;SDS011;12351;52.284;9.160;2023-04-03T09:00:18;5.50;;;1.20;;
24206;SDS011;12351;52.284;9.160;2023-04-03T09:03:04;4.43;;;1.60;;
24206;SDS011;12351;52.284;9.160;2023-04-03T09:08:43;6.70;;;1.30;;
24206;SDS011;12351;52.284;9.160;2023-04-03T09:20:07;3.47;;;1.20;;
24206;SDS011;12351;52.284;9.160;2023-04-03T09:22:51;5.77;;;1.30;;
24206;SDS011;12351;52.284;9.160;2023-04-03T09:25:39;6.47;;;1.37;;
24206;SDS011;12351;52.284;9.160;2023-04-03T09:28:26;3.90;;;1.13;;
24206;SDS011;12351;52.284;9.160;2023-04-03T09:31:16;4.77;;;1.20;;
24206;SDS011;12351;52.284;9.160;2023-04-03T09:34:05;4.67;;;1.30;;
24206;SDS011;12351;52.284;9.160;2023-04-03T09:36:53;6.73;;;1.30;;
24206;SDS011;12351;52.284;9.160;2023-04-03T09:42:31;4.97;;;1.10;;
24206;SDS011;12351;52.284;9.160;2023-04-03T09:48:13;7.10;;;1.40;;
24206;SDS011;12351;52.284;9.160;2023-04-03T09:50:58;4.65;;;1.17;;
24206;SDS011;12351;52.284;9.160;2023-04-03T09:53:47;6.92;;;1.00;;
24206;SDS011;12351;52.284;9.160;2023-04-03T09:56:35;3.20;;;0.90;;
24206;SDS011;12351;52.284;9.160;2023-04-03T09:59:23;7.58;;;0.95;;
24206;SDS011;12351;52.284;9.160;2023-04-03T10:05:03;2.62;;;0.98;;
24206;SDS011;12351;52.284;9.160;2023-04-03T10:07:51;4.00;;;0.72;;
24206;SDS011;12351;52.284;9.160;2023-04-03T10:10:41;4.00;;;0.90;;
24206;SDS011;12351;52.284;9.160;2023-04-03T10:13:30;4.28;;;0.80;;
24206;SDS011;12351;52.284;9.160;2023-04-03T10:16:20;3.98;;;0.90;;
24206;SDS011;12351;52.284;9.160;2023-04-03T10:19:14;3.05;;;0.80;;
24206;SDS011;12351;52.284;9.160;2023-04-03T10:22:00;4.08;;;1.10;;
24206;SDS011;12351;52.284;9.160;2023-04-03T10:47:16;5.08;;;1.20;;
24206;SDS011;12351;52.284;9.160;2023-04-03T10:52:55;2.30;;;0.80;;
24206;SDS011;12351;52.284;9.160;2023-04-03T10:58:36;4.22;;;0.93;;
24206;SDS011;12351;52.284;9.160;2023-04-03T11:01:27;2.72;;;0.88;;
24206;SDS011;12351;52.284;9.160;2023-04-03T11:04:16;2.08;;;0.82;;
24206;SDS011;12351;52.284;9.160;2023-04-03T11:09:58;2.05;;;0.70;;
24206;SDS011;12351;52.284;9.160;2023-04-03T11:12:48;5.75;;;0.80;;
24206;SDS011;12351;52.284;9.160;2023-04-03T11:15:37;4.33;;;1.00;;
24206;SDS011;12351;52.284;9.160;2023-04-03T11:18:27;2.85;;;0.70;;
24206;SDS011;12351;52.284;9.160;2023-04-03T11:24:11;2.02;;;0.60;;
24206;SDS011;12351;52.284;9.160;2023-04-03T11:26:56;3.05;;;0.60;;
24206;SDS011;12351;52.284;9.160;2023-04-03T11:29:45;1.85;;;0.70;;
24206;SDS011;12351;52.284;9.160;2023-04-03T11:35:24;5.12;;;0.98;;
24206;SDS011;12351;52.284;9.160;2023-04-03T11:41:03;2.33;;;0.80;;
24206;SDS011;12351;52.284;9.160;2023-04-03T11:58:03;1.65;;;0.53;;
24206;SDS011;12351;52.284;9.160;2023-04-03T12:17:48;2.87;;;0.88;;
24206;SDS011;12351;52.284;9.160;2023-04-03T12:29:17;1.92;;;0.93;;
24206;SDS011;12351;52.284;9.160;2023-04-03T12:49:04;3.15;;;0.70;;
24206;SDS011;12351;52.284;9.160;2023-04-03T12:51:52;3.52;;;0.70;;
24206;SDS011;12351;52.284;9.160;2023-04-03T12:54:41;3.70;;;0.98;;
24206;SDS011;12351;52.284;9.160;2023-04-03T12:57:30;2.35;;;0.80;;
24206;SDS011;12351;52.284;9.160;2023-04-03T13:00:18;3.17;;;0.88;;
24206;SDS011;12351;52.284;9.160;2023-04-03T13:03:19;2.42;;;0.68;;
24206;SDS011;12351;52.284;9.160;2023-04-03T13:05:59;4.47;;;0.80;;
24206;SDS011;12351;52.284;9.160;2023-04-03T13:08:49;1.92;;;0.90;;
24206;SDS011;12351;52.284;9.160;2023-04-03T13:11:39;2.55;;;0.80;;
24206;SDS011;12351;52.284;9.160;2023-04-03T13:14:28;4.50;;;1.20;;
24206;SDS011;12351;52.284;9.160;2023-04-03T13:17:17;5.85;;;1.17;;
24206;SDS011;12351;52.284;9.160;2023-04-03T13:22:56;4.20;;;0.80;;
24206;SDS011;12351;52.284;9.160;2023-04-03T13:25:45;1.25;;;0.80;;
24206;SDS011;12351;52.284;9.160;2023-04-03T13:28:33;2.85;;;1.02;;
24206;SDS011;12351;52.284;9.160;2023-04-03T13:31:23;2.27;;;1.00;;
24206;SDS011;12351;52.284;9.160;2023-04-03T13:34:12;1.87;;;0.90;;
24206;SDS011;12351;52.284;9.160;2023-04-03T13:37:01;5.17;;;1.17;;
24206;SDS011;12351;52.284;9.160;2023-04-03T13:40:20;2.00;;;0.78;;
24206;SDS011;12351;52.284;9.160;2023-04-03T13:42:40;3.25;;;1.32;;
24206;SDS011;12351;52.284;9.160;2023-04-03T13:45:28;3.22;;;1.00;;
24206;SDS011;12351;52.284;9.160;2023-04-03T13:48:17;2.47;;;1.00;;
24206;SDS011;12351;52.284;9.160;2023-04-03T13:51:17;4.45;;;0.90;;
24206;SDS011;12351;52.284;9.160;2023-04-03T13:54:00;2.52;;;1.07;;
24206;SDS011;12351;52.284;9.160;2023-04-03T13:59:39;2.75;;;0.80;;
24206;SDS011;12351;52.284;9.160;2023-04-03T14:05:16;1.98;;;0.95;;
24206;SDS011;12351;52.284;9.160;2023-04-03T14:08:04;4.58;;;0.82;;
24206;SDS011;12351;52.284;9.160;2023-04-03T14:10:52;1.85;;;0.70;;
24206;SDS011;12351;52.284;9.160;2023-04-03T14:13:40;3.98;;;0.95;;
24206;SDS011;12351;52.284;9.160;2023-04-03T14:16:28;2.92;;;1.00;;
24206;SDS011;12351;52.284;9.160;2023-04-03T14:19:21;2.83;;;1.00;;
24206;SDS011;12351;52.284;9.160;2023-04-03T14:24:57;2.45;;;0.80;;
24206;SDS011;12351;52.284;9.160;2023-04-03T14:27:46;1.80;;;0.70;;
24206;SDS011;12351;52.284;9.160;2023-04-03T14:30:35;3.35;;;0.78;;
24206;SDS011;12351;52.284;9.160;2023-04-03T14:33:22;2.10;;;0.82;;
24206;SDS011;12351;52.284;9.160;2023-04-03T14:39:01;2.35;;;1.05;;
24206;SDS011;12351;52.284;9.160;2023-04-03T14:41:49;2.08;;;0.90;;
24206;SDS011;12351;52.284;9.160;2023-04-03T14:44:36;2.12;;;0.90;;
24206;SDS011;12351;52.284;9.160;2023-04-03T14:47:24;4.47;;;0.90;;
24206;SDS011;12351;52.284;9.160;2023-04-03T14:50:15;1.92;;;0.78;;
24206;SDS011;12351;52.284;9.160;2023-04-03T14:53:05;1.83;;;0.90;;
24206;SDS011;12351;52.284;9.160;2023-04-03T14:55:52;0.93;;;0.75;;
24206;SDS011;12351;52.284;9.160;2023-04-03T14:58:39;1.77;;;0.70;;
24206;SDS011;12351;52.284;9.160;2023-04-03T15:01:27;1.85;;;0.62;;
24206;SDS011;12351;52.284;9.160;2023-04-03T15:04:15;2.47;;;1.00;;
24206;SDS011;12351;52.284;9.160;2023-04-03T15:07:03;2.00;;;0.70;;
24206;SDS011;12351;52.284;9.160;2023-04-03T15:09:51;2.95;;;0.85;;
24206;SDS011;12351;52.284;9.160;2023-04-03T15:12:38;2.52;;;0.85;;
24206;SDS011;12351;52.284;9.160;2023-04-03T15:15:27;3.22;;;0.70;;
24206;SDS011;12351;52.284;9.160;2023-04-03T15:18:16;2.55;;;0.93;;
24206;SDS011;12351;52.284;9.160;2023-04-03T15:21:05;4.60;;;0.78;;
24206;SDS011;12351;52.284;9.160;2023-04-03T15:23:53;3.35;;;0.82;;
24206;SDS011;12351;52.284;9.160;2023-04-03T15:26:40;2.05;;;0.70;;
24206;SDS011;12351;52.284;9.160;2023-04-03T15:29:27;3.15;;;0.60;;
24206;SDS011;12351;52.284;9.160;2023-04-03T15:32:15;2.45;;;0.85;;
24206;SDS011;12351;52.284;9.160;2023-04-03T15:35:06;3.70;;;0.78;;
24206;SDS011;12351;52.284;9.160;2023-04-03T15:37:57;1.67;;;1.00;;
24206;SDS011;12351;52.284;9.160;2023-04-03T15:43:37;4.53;;;2.10;;
24206;SDS011;12351;52.284;9.160;2023-04-03T15:46:24;2.08;;;1.00;;
24206;SDS011;12351;52.284;9.160;2023-04-03T15:49:13;3.05;;;0.88;;
24206;SDS011;12351;52.284;9.160;2023-04-03T15:52:04;3.15;;;0.90;;
24206;SDS011;12351;52.284;9.160;2023-04-03T15:54:54;4.22;;;1.05;;
24206;SDS011;12351;52.284;9.160;2023-04-03T15:57:43;2.05;;;0.90;;
24206;SDS011;12351;52.284;9.160;2023-04-03T16:00:34;2.10;;;0.85;;
24206;SDS011;12351;52.284;9.160;2023-04-03T16:03:23;3.45;;;1.32;;
24206;SDS011;12351;52.284;9.160;2023-04-03T16:06:13;2.87;;;1.20;;
24206;SDS011;12351;52.284;9.160;2023-04-03T16:09:04;1.82;;;0.80;;
24206;SDS011;12351;52.284;9.160;2023-04-03T16:11:55;4.20;;;1.25;;
24206;SDS011;12351;52.284;9.160;2023-04-03T16:14:43;2.08;;;1.17;;
24206;SDS011;12351;52.284;9.160;2023-04-03T16:17:33;1.80;;;1.05;;
24206;SDS011;12351;52.284;9.160;2023-04-03T16:20:21;5.08;;;1.10;;
24206;SDS011;12351;52.284;9.160;2023-04-03T16:23:11;5.00;;;1.17;;
24206;SDS011;12351;52.284;9.160;2023-04-03T16:26:00;1.75;;;0.93;;
24206;SDS011;12351;52.284;9.160;2023-04-03T16:28:49;7.25;;;2.85;;
24206;SDS011;12351;52.284;9.160;2023-04-03T16:31:38;2.60;;;0.80;;
24206;SDS011;12351;52.284;9.160;2023-04-03T16:34:28;2.33;;;1.10;;
24206;SDS011;12351;52.284;9.160;2023-04-03T16:37:19;3.27;;;1.00;;
24206;SDS011;12351;52.284;9.160;2023-04-03T16:40:07;3.15;;;1.32;;
24206;SDS011;12351;52.284;9.160;2023-04-03T16:42:56;2.30;;;1.10;;
24206;SDS011;12351;52.284;9.160;2023-04-03T16:45:44;2.90;;;1.10;;
24206;SDS011;12351;52.284;9.160;2023-04-03T16:48:33;4.10;;;1.25;;
24206;SDS011;12351;52.284;9.160;2023-04-03T16:51:21;5.03;;;1.00;;
24206;SDS011;12351;52.284;9.160;2023-04-03T16:54:11;4.42;;;1.10;;
24206;SDS011;12351;52.284;9.160;2023-04-03T16:56:59;1.87;;;1.02;;
24206;SDS011;12351;52.284;9.160;2023-04-03T16:59:49;2.37;;;0.88;;
24206;SDS011;12351;52.284;9.160;2023-04-03T17:02:38;3.55;;;1.17;;
24206;SDS011;12351;52.284;9.160;2023-04-03T17:05:28;2.90;;;1.07;;
24206;SDS011;12351;52.284;9.160;2023-04-03T17:08:16;3.12;;;1.00;;
24206;SDS011;12351;52.284;9.160;2023-04-03T17:11:06;3.95;;;1.05;;
24206;SDS011;12351;52.284;9.160;2023-04-03T17:13:56;2.50;;;1.10;;
24206;SDS011;12351;52.284;9.160;2023-04-03T17:16:42;3.90;;;0.95;;
24206;SDS011;12351;52.284;9.160;2023-04-03T17:19:31;1.90;;;0.93;;
24206;SDS011;12351;52.284;9.160;2023-04-03T17:22:20;6.17;;;1.40;;
24206;SDS011;12351;52.284;9.160;2023-04-03T17:25:09;3.42;;;1.10;;
24206;SDS011;12351;52.284;9.160;2023-04-03T17:27:59;3.30;;;1.40;;
24206;SDS011;12351;52.284;9.160;2023-04-03T17:30:47;2.83;;;1.15;;
24206;SDS011;12351;52.284;9.160;2023-04-03T17:33:34;3.67;;;1.40;;
24206;SDS011;12351;52.284;9.160;2023-04-03T19:56:50;4.30;;;0.85;;
24206;SDS011;12351;52.284;9.160;2023-04-03T19:59:39;2.60;;;0.90;;
24206;SDS011;12351;52.284;9.160;2023-04-03T20:02:32;1.87;;;0.93;;
24206;SDS011;12351;52.284;9.160;2023-04-03T20:05:21;2.90;;;0.90;;
24206;SDS011;12351;52.284;9.160;2023-04-03T20:08:09;2.35;;;0.70;;
24206;SDS011;12351;52.284;9.160;2023-04-03T20:10:58;3.02;;;0.82;;
24206;SDS011;12351;52.284;9.160;2023-04-03T20:13:48;5.70;;;1.02;;
24206;SDS011;12351;52.284;9.160;2023-04-03T20:16:38;2.87;;;1.10;;
24206;SDS011;12351;52.284;9.160;2023-04-03T20:19:26;1.47;;;0.80;;
24206;SDS011;12351;52.284;9.160;2023-04-03T20:22:16;2.83;;;1.20;;
24206;SDS011;12351;52.284;9.160;2023-04-03T20:25:07;3.22;;;1.00;;
24206;SDS011;12351;52.284;9.160;2023-04-03T20:27:57;2.17;;;0.80;;
24206;SDS011;12351;52.284;9.160;2023-04-03T20:30:44;1.95;;;0.82;;
24206;SDS011;12351;52.284;9.160;2023-04-03T20:33:37;1.70;;;0.90;;
24206;SDS011;12351;52.284;9.160;2023-04-03T20:36:27;1.07;;;0.57;;
24206;SDS011;12351;52.284;9.160;2023-04-03T20:39:17;2.27;;;0.95;;
24206;SDS011;12351;52.284;9.160;2023-04-03T20:42:07;3.92;;;1.07;;
24206;SDS011;12351;52.284;9.160;2023-04-03T20:44:56;4.17;;;1.10;;
24206;SDS011;12351;52.284;9.160;2023-04-03T20:47:47;2.90;;;1.20;;
24206;SDS011;12351;52.284;9.160;2023-04-03T20:50:37;3.75;;;1.17;;
24206;SDS011;12351;52.284;9.160;2023-04-03T20:53:27;2.52;;;1.00;;
24206;SDS011;12351;52.284;9.160;2023-04-03T20:56:18;5.22;;;1.00;;
24206;SDS011;12351;52.284;9.160;2023-04-03T20:59:09;4.78;;;1.07;;
24206;SDS011;12351;52.284;9.160;2023-04-03T21:02:01;2.45;;;1.20;;
24206;SDS011;12351;52.284;9.160;2023-04-03T21:04:51;2.65;;;0.98;;
24206;SDS011;12351;52.284;9.160;2023-04-03T21:19:18;4.12;;;1.40;;
24206;SDS011;12351;52.284;9.160;2023-04-03T21:22:08;5.90;;;2.00;;
24206;SDS011;12351;52.284;9.160;2023-04-03T21:24:57;4.50;;;2.25;;
24206;SDS011;12351;52.284;9.160;2023-04-03T21:27:47;5.90;;;2.10;;
24206;SDS011;12351;52.284;9.160;2023-04-03T21:30:36;4.40;;;1.62;;
24206;SDS011;12351;52.284;9.160;2023-04-03T21:33:26;4.70;;;1.77;;
24206;SDS011;12351;52.284;9.160;2023-04-03T21:36:19;4.37;;;1.70;;
24206;SDS011;12351;52.284;9.160;2023-04-03T21:39:08;3.62;;;1.85;;
24206;SDS011;12351;52.284;9.160;2023-04-03T21:42:00;3.22;;;1.72;;
24206;SDS011;12351;52.284;9.160;2023-04-03T21:44:50;3.90;;;1.20;;
24206;SDS011;12351;52.284;9.160;2023-04-03T21:47:41;2.92;;;1.00;;
24206;SDS011;12351;52.284;9.160;2023-04-03T21:50:31;3.17;;;1.35;;
24206;SDS011;12351;52.284;9.160;2023-04-03T21:53:22;2.77;;;1.15;;
24206;SDS011;12351;52.284;9.160;2023-04-03T21:56:13;3.10;;;1.10;;